DFEC weather

Komin-Yanga Airport
Komin-Yanga, Koulpulogo, Burkina Faso

Public forecast

Using degrees Celsius for public forecast. Weather courtesy of forecast.io.

METAR (pilot weather report)

Report is more than 6 hours old.

Closest report is Fada N'gourma Airport, 23.2 nm (43.0 km) NNE. Retrieved 2009/09/21 17:00 UTC (9 years ago):

DFEF 211700Z 00000KT 9999 FEW0226 TCU BKN260 30/25

TAF (pilot weather forecast)

Closest forecast is Ouagadougou Airport, 105.2 nm (194.8 km) WNW. Retrieved 2019/03/19 06:21 UTC (1 hour ago):

TAF DFFD 190500Z 1906/2012 VRB07KT 8000 NSC PROB30 TEMPO 1906/1910 4000 DU PROB30 TEMPO 1916/1922 TS FEW026 FEW040CB TEMPO 2006/2010 4000 DU